Tims Ford Observed Data For Previous 48 Hours

Caption
Day and Hour Reservoir Elevation (behind dam)* Tailwater Elevation (below dam)* Average Hourly Discharge*
1/16/2019 1 AM CST 874.65 744.12 240
1/16/2019 2 AM CST 874.66 744.04 240
1/16/2019 3 AM CST 874.65 744.24 240
1/16/2019 4 AM CST 874.66 750.18 3,573
1/16/2019 5 AM CST 874.61 750.33 3,833
1/16/2019 6 AM CST 874.59 750.37 3,835
1/16/2019 7 AM CST 874.57 750.41 3,847
1/16/2019 8 AM CST 874.54 750.40 3,838
1/16/2019 9 AM CST 874.51 750.38 3,854
1/16/2019 10 AM CST 874.48 750.39 3,833
1/16/2019 11 AM CST 874.46 750.32 3,803
1/16/2019 12 PM CST 874.42 750.39 3,825
1/16/2019 1 PM CST 874.42 744.68 367
1/16/2019 2 PM CST 874.45 744.11 240
1/16/2019 3 PM CST 874.44 744.05 240
1/16/2019 4 PM CST 874.43 744.23 240
1/16/2019 5 PM CST 874.45 750.16 3,507
1/16/2019 6 PM CST 874.42 750.32 3,826
1/16/2019 7 PM CST 874.38 750.37 3,840
1/16/2019 8 PM CST 874.37 750.37 3,831
1/16/2019 9 PM CST 874.34 750.41 3,832
1/16/2019 10 PM CST 874.32 750.41 3,828
1/16/2019 11 PM CST 874.31 744.66 365
1/17/2019 12 AM CST 874.33 744.13 240
1/17/2019 1 AM CST 874.34 744.06 240
1/17/2019 2 AM CST 874.34 744.05 240
1/17/2019 3 AM CST 874.35 744.06 240
1/17/2019 4 AM CST 874.37 744.03 240
1/17/2019 5 AM CST 874.39 744.03 240
1/17/2019 6 AM CST 874.38 744.04 240
1/17/2019 7 AM CST 874.40 744.03 240
1/17/2019 8 AM CST 874.41 744.02 240
1/17/2019 9 AM CST 874.44 744.03 240
1/17/2019 10 AM CST 874.46 744.03 240
1/17/2019 11 AM CST 874.46 744.03 240
1/17/2019 12 PM CST 874.46 744.02 240
1/17/2019 1 PM CST 874.49 744.02 240
1/17/2019 2 PM CST 874.50 744.04 240
1/17/2019 3 PM CST 874.50 744.22 240
1/17/2019 4 PM CST 874.50 750.13 3,545
1/17/2019 5 PM CST 874.48 750.27 3,800
1/17/2019 6 PM CST 874.44 750.34 3,808
1/17/2019 7 PM CST 874.43 750.37 3,810
1/17/2019 8 PM CST 874.40 750.34 3,819
1/17/2019 9 PM CST 874.39 750.34 3,813
1/17/2019 10 PM CST 874.35 750.32 3,815
1/17/2019 11 PM CST 874.33 750.38 3,812

Elevations are in feet above sea level. Discharges are in cubic feet per second and are reported at the end of the hour.